sensor_id;sensor_type;location;lat;lon;timestamp;P1;durP1;ratioP1;P2;durP2;ratioP2
56413;SDS011;42318;48.452;19.526;2022-12-11T00:05:37;5.28;;;3.33;;
56413;SDS011;42318;48.452;19.526;2022-12-11T00:13:09;4.50;;;3.40;;
56413;SDS011;42318;48.452;19.526;2022-12-11T00:20:40;4.32;;;2.95;;
56413;SDS011;42318;48.452;19.526;2022-12-11T00:28:12;4.65;;;3.78;;
56413;SDS011;42318;48.452;19.526;2022-12-11T00:35:45;3.85;;;3.25;;
56413;SDS011;42318;48.452;19.526;2022-12-11T00:43:17;4.97;;;3.10;;
56413;SDS011;42318;48.452;19.526;2022-12-11T00:50:48;4.32;;;3.10;;
56413;SDS011;42318;48.452;19.526;2022-12-11T00:58:18;4.15;;;2.78;;
56413;SDS011;42318;48.452;19.526;2022-12-11T01:05:53;4.90;;;3.28;;
56413;SDS011;42318;48.452;19.526;2022-12-11T01:13:24;4.32;;;3.05;;
56413;SDS011;42318;48.452;19.526;2022-12-11T01:20:55;4.25;;;2.65;;
56413;SDS011;42318;48.452;19.526;2022-12-11T01:28:25;3.53;;;2.67;;
56413;SDS011;42318;48.452;19.526;2022-12-11T01:35:56;4.18;;;2.70;;
56413;SDS011;42318;48.452;19.526;2022-12-11T01:43:27;4.60;;;3.10;;
56413;SDS011;42318;48.452;19.526;2022-12-11T01:50:58;4.05;;;2.70;;
56413;SDS011;42318;48.452;19.526;2022-12-11T01:58:33;3.80;;;2.70;;
56413;SDS011;42318;48.452;19.526;2022-12-11T02:06:26;3.58;;;2.40;;
56413;SDS011;42318;48.452;19.526;2022-12-11T02:14:09;3.83;;;2.90;;
56413;SDS011;42318;48.452;19.526;2022-12-11T02:21:46;3.00;;;2.35;;
56413;SDS011;42318;48.452;19.526;2022-12-11T02:29:22;3.60;;;2.67;;
56413;SDS011;42318;48.452;19.526;2022-12-11T02:37:02;4.30;;;2.95;;
56413;SDS011;42318;48.452;19.526;2022-12-11T02:44:36;3.42;;;2.30;;
56413;SDS011;42318;48.452;19.526;2022-12-11T02:52:08;3.97;;;2.60;;
56413;SDS011;42318;48.452;19.526;2022-12-11T02:59:42;3.05;;;2.17;;
56413;SDS011;42318;48.452;19.526;2022-12-11T03:07:17;2.75;;;1.95;;
56413;SDS011;42318;48.452;19.526;2022-12-11T03:14:52;2.47;;;1.98;;
56413;SDS011;42318;48.452;19.526;2022-12-11T03:22:25;3.10;;;2.30;;
56413;SDS011;42318;48.452;19.526;2022-12-11T03:30:12;3.30;;;2.33;;
56413;SDS011;42318;48.452;19.526;2022-12-11T03:37:45;3.30;;;2.42;;
56413;SDS011;42318;48.452;19.526;2022-12-11T03:45:20;3.10;;;2.33;;
56413;SDS011;42318;48.452;19.526;2022-12-11T04:00:24;2.17;;;1.80;;
56413;SDS011;42318;48.452;19.526;2022-12-11T04:07:55;3.22;;;2.20;;
56413;SDS011;42318;48.452;19.526;2022-12-11T04:15:26;3.00;;;1.73;;
56413;SDS011;42318;48.452;19.526;2022-12-11T04:22:56;1.80;;;1.60;;
56413;SDS011;42318;48.452;19.526;2022-12-11T04:30:47;2.50;;;1.80;;
56413;SDS011;42318;48.452;19.526;2022-12-11T04:38:19;2.65;;;1.98;;
56413;SDS011;42318;48.452;19.526;2022-12-11T04:45:49;3.33;;;1.85;;
56413;SDS011;42318;48.452;19.526;2022-12-11T04:53:20;2.08;;;1.70;;
56413;SDS011;42318;48.452;19.526;2022-12-11T05:00:51;2.42;;;1.83;;
56413;SDS011;42318;48.452;19.526;2022-12-11T05:08:23;3.08;;;1.73;;
56413;SDS011;42318;48.452;19.526;2022-12-11T05:15:54;2.90;;;1.80;;
56413;SDS011;42318;48.452;19.526;2022-12-11T05:23:25;2.30;;;1.67;;
56413;SDS011;42318;48.452;19.526;2022-12-11T05:30:56;2.17;;;1.60;;
56413;SDS011;42318;48.452;19.526;2022-12-11T05:38:29;2.05;;;1.70;;
56413;SDS011;42318;48.452;19.526;2022-12-11T05:46:07;2.33;;;1.80;;
56413;SDS011;42318;48.452;19.526;2022-12-11T05:53:47;2.20;;;1.63;;
56413;SDS011;42318;48.452;19.526;2022-12-11T06:01:20;2.20;;;1.48;;
56413;SDS011;42318;48.452;19.526;2022-12-11T06:08:54;2.20;;;1.60;;
56413;SDS011;42318;48.452;19.526;2022-12-11T06:23:57;2.20;;;1.70;;
56413;SDS011;42318;48.452;19.526;2022-12-11T06:31:30;2.25;;;1.63;;
56413;SDS011;42318;48.452;19.526;2022-12-11T06:39:01;1.70;;;1.20;;
56413;SDS011;42318;48.452;19.526;2022-12-11T06:46:32;2.33;;;1.63;;
56413;SDS011;42318;48.452;19.526;2022-12-11T06:54:03;2.95;;;2.00;;
56413;SDS011;42318;48.452;19.526;2022-12-11T07:01:33;2.08;;;1.40;;
56413;SDS011;42318;48.452;19.526;2022-12-11T07:09:05;2.30;;;1.60;;
56413;SDS011;42318;48.452;19.526;2022-12-11T07:16:36;2.67;;;1.73;;
56413;SDS011;42318;48.452;19.526;2022-12-11T07:24:07;2.55;;;1.70;;
56413;SDS011;42318;48.452;19.526;2022-12-11T07:31:38;2.60;;;1.95;;
56413;SDS011;42318;48.452;19.526;2022-12-11T07:39:10;2.60;;;1.95;;
56413;SDS011;42318;48.452;19.526;2022-12-11T07:46:41;3.05;;;1.88;;
56413;SDS011;42318;48.452;19.526;2022-12-11T07:54:12;3.15;;;1.80;;
56413;SDS011;42318;48.452;19.526;2022-12-11T08:01:45;3.50;;;2.33;;
56413;SDS011;42318;48.452;19.526;2022-12-11T08:09:16;2.42;;;1.90;;
56413;SDS011;42318;48.452;19.526;2022-12-11T08:16:52;3.30;;;1.85;;
56413;SDS011;42318;48.452;19.526;2022-12-11T08:24:23;3.38;;;2.20;;
56413;SDS011;42318;48.452;19.526;2022-12-11T08:31:53;2.92;;;2.22;;
56413;SDS011;42318;48.452;19.526;2022-12-11T08:39:24;4.75;;;2.20;;
56413;SDS011;42318;48.452;19.526;2022-12-11T08:46:56;3.95;;;2.60;;
56413;SDS011;42318;48.452;19.526;2022-12-11T08:54:26;5.05;;;2.47;;
56413;SDS011;42318;48.452;19.526;2022-12-11T09:01:57;4.35;;;2.33;;
56413;SDS011;42318;48.452;19.526;2022-12-11T09:09:28;4.78;;;2.92;;
56413;SDS011;42318;48.452;19.526;2022-12-11T09:16:59;3.90;;;2.58;;
56413;SDS011;42318;48.452;19.526;2022-12-11T09:24:29;4.97;;;3.10;;
56413;SDS011;42318;48.452;19.526;2022-12-11T09:32:00;5.22;;;2.85;;
56413;SDS011;42318;48.452;19.526;2022-12-11T09:39:31;4.82;;;2.65;;
56413;SDS011;42318;48.452;19.526;2022-12-11T09:47:02;5.70;;;3.38;;
56413;SDS011;42318;48.452;19.526;2022-12-11T09:54:47;6.47;;;3.20;;
56413;SDS011;42318;48.452;19.526;2022-12-11T10:10:34;4.72;;;2.90;;
56413;SDS011;42318;48.452;19.526;2022-12-11T10:18:19;5.25;;;2.70;;
56413;SDS011;42318;48.452;19.526;2022-12-11T10:25:54;5.47;;;3.17;;
56413;SDS011;42318;48.452;19.526;2022-12-11T10:33:49;5.03;;;2.75;;
56413;SDS011;42318;48.452;19.526;2022-12-11T10:57:25;4.57;;;2.75;;
56413;SDS011;42318;48.452;19.526;2022-12-11T11:04:59;4.60;;;2.47;;
56413;SDS011;42318;48.452;19.526;2022-12-11T11:12:35;4.43;;;2.67;;
56413;SDS011;42318;48.452;19.526;2022-12-11T11:20:13;5.05;;;2.70;;
56413;SDS011;42318;48.452;19.526;2022-12-11T11:35:31;4.68;;;2.67;;
56413;SDS011;42318;48.452;19.526;2022-12-11T11:43:15;4.22;;;2.50;;
56413;SDS011;42318;48.452;19.526;2022-12-11T11:50:50;4.97;;;2.70;;
56413;SDS011;42318;48.452;19.526;2022-12-11T11:58:23;5.50;;;2.60;;
56413;SDS011;42318;48.452;19.526;2022-12-11T12:06:20;3.72;;;2.20;;
56413;SDS011;42318;48.452;19.526;2022-12-11T12:21:44;3.60;;;2.25;;
56413;SDS011;42318;48.452;19.526;2022-12-11T12:29:24;4.55;;;2.38;;
56413;SDS011;42318;48.452;19.526;2022-12-11T12:45:15;4.18;;;2.33;;
56413;SDS011;42318;48.452;19.526;2022-12-11T13:00:27;5.95;;;2.53;;
56413;SDS011;42318;48.452;19.526;2022-12-11T13:08:06;4.93;;;2.60;;
56413;SDS011;42318;48.452;19.526;2022-12-11T13:15:38;4.30;;;2.35;;
56413;SDS011;42318;48.452;19.526;2022-12-11T13:23:17;3.65;;;2.33;;
56413;SDS011;42318;48.452;19.526;2022-12-11T13:38:45;10.88;;;5.30;;
56413;SDS011;42318;48.452;19.526;2022-12-11T13:46:23;10.32;;;5.75;;
56413;SDS011;42318;48.452;19.526;2022-12-11T14:01:57;10.02;;;5.15;;
56413;SDS011;42318;48.452;19.526;2022-12-11T14:09:32;9.00;;;5.00;;
56413;SDS011;42318;48.452;19.526;2022-12-11T14:17:13;8.88;;;5.10;;
56413;SDS011;42318;48.452;19.526;2022-12-11T14:24:55;7.28;;;4.20;;
56413;SDS011;42318;48.452;19.526;2022-12-11T14:32:38;7.28;;;4.28;;
56413;SDS011;42318;48.452;19.526;2022-12-11T14:40:18;8.60;;;4.90;;
56413;SDS011;42318;48.452;19.526;2022-12-11T14:47:52;10.73;;;5.85;;
56413;SDS011;42318;48.452;19.526;2022-12-11T14:55:28;18.23;;;6.50;;
56413;SDS011;42318;48.452;19.526;2022-12-11T15:10:54;9.95;;;5.57;;
56413;SDS011;42318;48.452;19.526;2022-12-11T15:18:35;10.05;;;5.78;;
56413;SDS011;42318;48.452;19.526;2022-12-11T15:26:08;10.00;;;4.97;;
56413;SDS011;42318;48.452;19.526;2022-12-11T15:33:45;12.40;;;4.97;;
56413;SDS011;42318;48.452;19.526;2022-12-11T15:41:18;13.52;;;5.07;;
56413;SDS011;42318;48.452;19.526;2022-12-11T15:48:55;10.35;;;5.45;;
56413;SDS011;42318;48.452;19.526;2022-12-11T15:56:27;11.32;;;5.32;;
56413;SDS011;42318;48.452;19.526;2022-12-11T16:03:57;9.88;;;4.88;;
56413;SDS011;42318;48.452;19.526;2022-12-11T16:11:28;7.55;;;4.22;;
56413;SDS011;42318;48.452;19.526;2022-12-11T16:18:59;8.82;;;4.60;;
56413;SDS011;42318;48.452;19.526;2022-12-11T16:26:30;8.70;;;4.60;;
56413;SDS011;42318;48.452;19.526;2022-12-11T16:34:01;8.27;;;4.57;;
56413;SDS011;42318;48.452;19.526;2022-12-11T16:41:31;10.82;;;4.75;;
56413;SDS011;42318;48.452;19.526;2022-12-11T16:49:03;8.98;;;4.47;;
56413;SDS011;42318;48.452;19.526;2022-12-11T16:56:34;9.05;;;3.80;;
56413;SDS011;42318;48.452;19.526;2022-12-11T17:04:05;9.15;;;4.55;;
56413;SDS011;42318;48.452;19.526;2022-12-11T17:11:35;8.00;;;4.10;;
56413;SDS011;42318;48.452;19.526;2022-12-11T17:19:06;10.10;;;4.32;;
56413;SDS011;42318;48.452;19.526;2022-12-11T17:26:38;7.00;;;4.60;;
56413;SDS011;42318;48.452;19.526;2022-12-11T17:34:09;8.50;;;3.92;;
56413;SDS011;42318;48.452;19.526;2022-12-11T17:41:40;9.45;;;4.30;;
56413;SDS011;42318;48.452;19.526;2022-12-11T17:49:10;8.60;;;5.13;;
56413;SDS011;42318;48.452;19.526;2022-12-11T17:56:41;7.45;;;4.57;;
56413;SDS011;42318;48.452;19.526;2022-12-11T18:04:12;9.50;;;5.18;;
56413;SDS011;42318;48.452;19.526;2022-12-11T18:11:43;8.05;;;4.38;;
56413;SDS011;42318;48.452;19.526;2022-12-11T18:19:14;7.47;;;4.70;;
56413;SDS011;42318;48.452;19.526;2022-12-11T18:26:45;9.60;;;4.90;;
56413;SDS011;42318;48.452;19.526;2022-12-11T18:34:16;7.75;;;4.82;;
56413;SDS011;42318;48.452;19.526;2022-12-11T18:41:46;8.57;;;4.88;;
56413;SDS011;42318;48.452;19.526;2022-12-11T18:49:17;11.60;;;6.00;;
56413;SDS011;42318;48.452;19.526;2022-12-11T18:56:48;8.43;;;5.25;;
56413;SDS011;42318;48.452;19.526;2022-12-11T19:04:19;8.13;;;4.80;;
56413;SDS011;42318;48.452;19.526;2022-12-11T19:11:50;8.82;;;5.32;;
56413;SDS011;42318;48.452;19.526;2022-12-11T19:19:21;9.43;;;5.63;;
56413;SDS011;42318;48.452;19.526;2022-12-11T19:26:52;9.43;;;5.35;;
56413;SDS011;42318;48.452;19.526;2022-12-11T19:34:23;7.78;;;4.75;;
56413;SDS011;42318;48.452;19.526;2022-12-11T19:41:55;8.73;;;5.90;;
56413;SDS011;42318;48.452;19.526;2022-12-11T19:49:25;8.98;;;5.07;;
56413;SDS011;42318;48.452;19.526;2022-12-11T19:56:56;8.55;;;5.57;;
56413;SDS011;42318;48.452;19.526;2022-12-11T20:04:27;8.15;;;5.38;;
56413;SDS011;42318;48.452;19.526;2022-12-11T20:11:58;8.77;;;5.60;;
56413;SDS011;42318;48.452;19.526;2022-12-11T20:19:29;9.50;;;5.20;;
56413;SDS011;42318;48.452;19.526;2022-12-11T20:27:01;9.07;;;5.27;;
56413;SDS011;42318;48.452;19.526;2022-12-11T20:34:31;8.27;;;4.93;;
56413;SDS011;42318;48.452;19.526;2022-12-11T20:42:02;8.18;;;5.18;;
56413;SDS011;42318;48.452;19.526;2022-12-11T20:49:34;7.68;;;4.45;;
56413;SDS011;42318;48.452;19.526;2022-12-11T20:57:05;6.15;;;4.43;;
56413;SDS011;42318;48.452;19.526;2022-12-11T21:04:36;9.00;;;5.18;;
56413;SDS011;42318;48.452;19.526;2022-12-11T21:12:10;7.60;;;4.63;;
56413;SDS011;42318;48.452;19.526;2022-12-11T21:19:41;7.63;;;4.65;;
56413;SDS011;42318;48.452;19.526;2022-12-11T21:27:12;6.82;;;4.18;;
56413;SDS011;42318;48.452;19.526;2022-12-11T21:34:43;7.32;;;4.60;;
56413;SDS011;42318;48.452;19.526;2022-12-11T21:42:14;8.00;;;4.28;;
56413;SDS011;42318;48.452;19.526;2022-12-11T21:49:45;7.00;;;4.35;;
56413;SDS011;42318;48.452;19.526;2022-12-11T21:57:17;7.30;;;4.30;;
56413;SDS011;42318;48.452;19.526;2022-12-11T22:04:48;6.25;;;4.05;;
56413;SDS011;42318;48.452;19.526;2022-12-11T22:12:22;5.85;;;4.10;;
56413;SDS011;42318;48.452;19.526;2022-12-11T22:19:55;5.53;;;4.05;;
56413;SDS011;42318;48.452;19.526;2022-12-11T22:27:26;5.60;;;4.07;;
56413;SDS011;42318;48.452;19.526;2022-12-11T22:34:57;6.43;;;3.90;;
56413;SDS011;42318;48.452;19.526;2022-12-11T22:42:28;6.35;;;3.70;;
56413;SDS011;42318;48.452;19.526;2022-12-11T22:49:58;4.78;;;3.28;;
56413;SDS011;42318;48.452;19.526;2022-12-11T22:57:29;5.30;;;3.60;;
56413;SDS011;42318;48.452;19.526;2022-12-11T23:05:00;6.35;;;3.97;;
56413;SDS011;42318;48.452;19.526;2022-12-11T23:12:30;5.95;;;4.15;;
56413;SDS011;42318;48.452;19.526;2022-12-11T23:20:01;6.82;;;3.95;;
56413;SDS011;42318;48.452;19.526;2022-12-11T23:27:34;5.65;;;3.55;;
56413;SDS011;42318;48.452;19.526;2022-12-11T23:35:05;6.82;;;3.63;;
56413;SDS011;42318;48.452;19.526;2022-12-11T23:42:36;5.32;;;3.75;;
56413;SDS011;42318;48.452;19.526;2022-12-11T23:50:07;6.63;;;3.83;;
56413;SDS011;42318;48.452;19.526;2022-12-11T23:57:38;5.47;;;3.60;;
